Terminal Aerodrome Forecast
Issued by NWS Wilmington, OH

Home | Current Version | Previous Version | Text Only | Print | Product List | Glossary On
Versions: 1 2 3 4 5 6 7 8 9 10 11 12 13 14 15
000
FTUS41 KILN 291428 AAA
TAFDAY
TAF AMD
KDAY 291428Z 2914/3012 22015G25KT P6SM SCT050 BKN250
     FM300000 21011KT P6SM SCT050 BKN250
      TEMPO 3005/3007 -SHRA=

USA.gov is the U.S. government's official web portal to all federal, state and local government web resources and services.